sensor_id;sensor_type;location;lat;lon;timestamp;pressure;altitude;pressure_sealevel;temperature;humidity
65181;BME280;51765;48.112;11.766;2024-01-27T00:02:11;96963.88;;;2.45;100.00
65181;BME280;51765;48.112;11.766;2024-01-27T00:04:37;96946.59;;;2.45;100.00
65181;BME280;51765;48.112;11.766;2024-01-27T00:07:04;96958.84;;;2.43;100.00
65181;BME280;51765;48.112;11.766;2024-01-27T00:09:32;96944.50;;;2.39;100.00
65181;BME280;51765;48.112;11.766;2024-01-27T00:11:59;96954.03;;;2.38;100.00
65181;BME280;51765;48.112;11.766;2024-01-27T00:14:26;96962.72;;;2.37;100.00
65181;BME280;51765;48.112;11.766;2024-01-27T00:16:53;96975.53;;;2.39;100.00
65181;BME280;51765;48.112;11.766;2024-01-27T00:19:20;96978.25;;;2.26;100.00
65181;BME280;51765;48.112;11.766;2024-01-27T00:21:46;96978.25;;;2.26;100.00
65181;BME280;51765;48.112;11.766;2024-01-27T00:24:13;96954.13;;;2.03;100.00
65181;BME280;51765;48.112;11.766;2024-01-27T00:26:42;96975.19;;;2.21;100.00
65181;BME280;51765;48.112;11.766;2024-01-27T00:29:13;96973.91;;;2.15;100.00
65181;BME280;51765;48.112;11.766;2024-01-27T00:31:40;96973.91;;;2.15;100.00
65181;BME280;51765;48.112;11.766;2024-01-27T00:34:06;96971.06;;;2.18;100.00
65181;BME280;51765;48.112;11.766;2024-01-27T00:36:33;96957.69;;;2.13;100.00
65181;BME280;51765;48.112;11.766;2024-01-27T00:39:02;96962.03;;;2.13;100.00
65181;BME280;51765;48.112;11.766;2024-01-27T00:41:31;96962.25;;;2.10;100.00
65181;BME280;51765;48.112;11.766;2024-01-27T00:43:59;96962.50;;;2.07;100.00
65181;BME280;51765;48.112;11.766;2024-01-27T00:46:26;96965.53;;;2.00;100.00
65181;BME280;51765;48.112;11.766;2024-01-27T00:48:52;96960.59;;;1.97;100.00
65181;BME280;51765;48.112;11.766;2024-01-27T00:51:19;96957.44;;;1.94;100.00
65181;BME280;51765;48.112;11.766;2024-01-27T00:53:48;96969.19;;;1.98;100.00
65181;BME280;51765;48.112;11.766;2024-01-27T00:56:15;96968.25;;;1.99;100.00
65181;BME280;51765;48.112;11.766;2024-01-27T00:58:41;96973.41;;;1.99;100.00
65181;BME280;51765;48.112;11.766;2024-01-27T01:01:10;96975.75;;;2.02;100.00
65181;BME280;51765;48.112;11.766;2024-01-27T01:03:36;96980.91;;;1.91;100.00
65181;BME280;51765;48.112;11.766;2024-01-27T01:06:05;96990.69;;;1.87;100.00
65181;BME280;51765;48.112;11.766;2024-01-27T01:08:31;96981.25;;;1.75;100.00
65181;BME280;51765;48.112;11.766;2024-01-27T01:10:58;96987.47;;;1.72;100.00
65181;BME280;51765;48.112;11.766;2024-01-27T01:13:25;96989.56;;;1.67;100.00
65181;BME280;51765;48.112;11.766;2024-01-27T01:15:52;96988.97;;;1.52;100.00
65181;BME280;51765;48.112;11.766;2024-01-27T01:18:20;96997.38;;;1.43;100.00
65181;BME280;51765;48.112;11.766;2024-01-27T01:20:47;97001.56;;;1.32;100.00
65181;BME280;51765;48.112;11.766;2024-01-27T01:23:13;97003.50;;;1.17;100.00
65181;BME280;51765;48.112;11.766;2024-01-27T01:25:40;97003.16;;;0.98;100.00
65181;BME280;51765;48.112;11.766;2024-01-27T01:28:07;96999.59;;;0.88;100.00
65181;BME280;51765;48.112;11.766;2024-01-27T01:30:35;97002.19;;;0.88;100.00
65181;BME280;51765;48.112;11.766;2024-01-27T01:33:01;96992.50;;;0.78;100.00
65181;BME280;51765;48.112;11.766;2024-01-27T01:35:30;96993.75;;;0.73;100.00
65181;BME280;51765;48.112;11.766;2024-01-27T01:37:57;96988.22;;;0.66;100.00
65181;BME280;51765;48.112;11.766;2024-01-27T01:40:24;97006.19;;;0.67;100.00
65181;BME280;51765;48.112;11.766;2024-01-27T01:42:50;97004.41;;;0.68;100.00
65181;BME280;51765;48.112;11.766;2024-01-27T01:45:20;97018.03;;;0.70;100.00
65181;BME280;51765;48.112;11.766;2024-01-27T01:47:47;97024.34;;;0.66;100.00
65181;BME280;51765;48.112;11.766;2024-01-27T01:50:14;97018.63;;;0.74;100.00
65181;BME280;51765;48.112;11.766;2024-01-27T01:52:42;97009.03;;;0.76;100.00
65181;BME280;51765;48.112;11.766;2024-01-27T01:55:08;97019.03;;;0.80;100.00
65181;BME280;51765;48.112;11.766;2024-01-27T01:57:38;97029.03;;;0.85;100.00
65181;BME280;51765;48.112;11.766;2024-01-27T02:00:05;97031.91;;;0.93;100.00
65181;BME280;51765;48.112;11.766;2024-01-27T02:02:37;97029.31;;;0.93;100.00
65181;BME280;51765;48.112;11.766;2024-01-27T02:05:07;97023.75;;;0.87;100.00
65181;BME280;51765;48.112;11.766;2024-01-27T02:07:35;97033.16;;;0.88;100.00
65181;BME280;51765;48.112;11.766;2024-01-27T02:10:04;97023.75;;;0.87;100.00
65181;BME280;51765;48.112;11.766;2024-01-27T02:12:31;97033.19;;;0.75;100.00
65181;BME280;51765;48.112;11.766;2024-01-27T02:14:58;97038.78;;;0.68;100.00
65181;BME280;51765;48.112;11.766;2024-01-27T02:17:25;97039.50;;;0.71;100.00
65181;BME280;51765;48.112;11.766;2024-01-27T02:19:52;97043.22;;;0.66;100.00
65181;BME280;51765;48.112;11.766;2024-01-27T02:22:19;97047.13;;;0.72;100.00
65181;BME280;51765;48.112;11.766;2024-01-27T02:24:48;97049.50;;;0.75;100.00
65181;BME280;51765;48.112;11.766;2024-01-27T02:27:15;97054.53;;;0.77;100.00
65181;BME280;51765;48.112;11.766;2024-01-27T02:29:42;97055.19;;;0.67;100.00
65181;BME280;51765;48.112;11.766;2024-01-27T02:32:09;97057.13;;;0.77;100.00
65181;BME280;51765;48.112;11.766;2024-01-27T02:34:35;97058.81;;;0.65;100.00
65181;BME280;51765;48.112;11.766;2024-01-27T02:37:02;97059.97;;;0.61;100.00
65181;BME280;51765;48.112;11.766;2024-01-27T02:39:30;97057.41;;;0.48;100.00
65181;BME280;51765;48.112;11.766;2024-01-27T02:41:58;97052.22;;;0.35;100.00
65181;BME280;51765;48.112;11.766;2024-01-27T02:44:25;97041.63;;;0.27;100.00
65181;BME280;51765;48.112;11.766;2024-01-27T02:46:52;97044.19;;;0.40;100.00
65181;BME280;51765;48.112;11.766;2024-01-27T02:49:18;97047.91;;;0.48;100.00
65181;BME280;51765;48.112;11.766;2024-01-27T02:51:45;97037.47;;;0.50;100.00
65181;BME280;51765;48.112;11.766;2024-01-27T02:54:13;97055.59;;;0.61;100.00
65181;BME280;51765;48.112;11.766;2024-01-27T02:56:40;97053.53;;;0.66;100.00
65181;BME280;51765;48.112;11.766;2024-01-27T02:59:08;97047.16;;;0.59;100.00
65181;BME280;51765;48.112;11.766;2024-01-27T03:01:34;97053.53;;;0.66;100.00
65181;BME280;51765;48.112;11.766;2024-01-27T03:04:01;97060.03;;;0.72;100.00
65181;BME280;51765;48.112;11.766;2024-01-27T03:06:29;97065.19;;;0.72;100.00
65181;BME280;51765;48.112;11.766;2024-01-27T03:08:56;97062.53;;;0.61;100.00
65181;BME280;51765;48.112;11.766;2024-01-27T03:11:23;97062.84;;;0.43;100.00
65181;BME280;51765;48.112;11.766;2024-01-27T03:13:50;97070.06;;;0.25;100.00
65181;BME280;51765;48.112;11.766;2024-01-27T03:16:18;97071.84;;;0.12;100.00
65181;BME280;51765;48.112;11.766;2024-01-27T03:18:45;97077.22;;;0.09;100.00
65181;BME280;51765;48.112;11.766;2024-01-27T03:21:14;97078.94;;;-0.05;100.00
65181;BME280;51765;48.112;11.766;2024-01-27T03:23:41;97086.34;;;-0.13;100.00
65181;BME280;51765;48.112;11.766;2024-01-27T03:26:08;97084.78;;;-0.15;100.00
65181;BME280;51765;48.112;11.766;2024-01-27T03:28:34;97090.13;;;-0.19;100.00
65181;BME280;51765;48.112;11.766;2024-01-27T03:31:01;97088.50;;;-0.20;100.00
65181;BME280;51765;48.112;11.766;2024-01-27T03:33:30;97090.56;;;-0.12;100.00
65181;BME280;51765;48.112;11.766;2024-01-27T03:35:56;97100.44;;;-0.19;100.00
65181;BME280;51765;48.112;11.766;2024-01-27T03:38:23;97101.66;;;-0.24;100.00
65181;BME280;51765;48.112;11.766;2024-01-27T03:40:50;97107.22;;;-0.30;100.00
65181;BME280;51765;48.112;11.766;2024-01-27T03:43:19;97113.31;;;-0.31;100.00
65181;BME280;51765;48.112;11.766;2024-01-27T03:45:45;97116.97;;;-0.08;100.00
65181;BME280;51765;48.112;11.766;2024-01-27T03:48:12;97119.44;;;-0.07;100.00
65181;BME280;51765;48.112;11.766;2024-01-27T03:50:40;97120.91;;;-0.03;100.00
65181;BME280;51765;48.112;11.766;2024-01-27T03:53:07;97126.91;;;0.11;100.00
65181;BME280;51765;48.112;11.766;2024-01-27T03:55:33;97123.19;;;0.15;100.00
65181;BME280;51765;48.112;11.766;2024-01-27T03:58:00;97122.81;;;0.21;100.00
65181;BME280;51765;48.112;11.766;2024-01-27T04:00:27;97125.16;;;0.24;100.00
65181;BME280;51765;48.112;11.766;2024-01-27T04:02:55;97120.44;;;0.31;100.00
65181;BME280;51765;48.112;11.766;2024-01-27T04:05:21;97118.88;;;0.41;100.00
65181;BME280;51765;48.112;11.766;2024-01-27T04:07:49;97125.28;;;0.48;100.00
65181;BME280;51765;48.112;11.766;2024-01-27T04:10:16;97122.69;;;0.36;100.00
65181;BME280;51765;48.112;11.766;2024-01-27T04:12:44;97129.69;;;0.33;100.00
65181;BME280;51765;48.112;11.766;2024-01-27T04:15:11;97133.13;;;0.21;100.00
65181;BME280;51765;48.112;11.766;2024-01-27T04:17:37;97127.22;;;0.19;100.00
65181;BME280;51765;48.112;11.766;2024-01-27T04:20:08;97136.38;;;0.10;100.00
65181;BME280;51765;48.112;11.766;2024-01-27T04:22:35;97137.19;;;-0.02;100.00
65181;BME280;51765;48.112;11.766;2024-01-27T04:25:04;97127.09;;;-0.05;100.00
65181;BME280;51765;48.112;11.766;2024-01-27T04:27:31;97134.06;;;-0.07;100.00
65181;BME280;51765;48.112;11.766;2024-01-27T04:29:58;97132.00;;;-0.15;100.00
65181;BME280;51765;48.112;11.766;2024-01-27T04:32:25;97134.47;;;-0.13;100.00
65181;BME280;51765;48.112;11.766;2024-01-27T04:34:52;97132.94;;;-0.16;100.00
65181;BME280;51765;48.112;11.766;2024-01-27T04:37:18;97132.88;;;-0.29;100.00
65181;BME280;51765;48.112;11.766;2024-01-27T04:39:45;97142.28;;;-0.28;100.00
65181;BME280;51765;48.112;11.766;2024-01-27T04:42:14;97132.34;;;-0.34;100.00
65181;BME280;51765;48.112;11.766;2024-01-27T04:44:41;97139.47;;;-0.38;100.00
65181;BME280;51765;48.112;11.766;2024-01-27T04:47:08;97148.81;;;-0.37;100.00
65181;BME280;51765;48.112;11.766;2024-01-27T04:49:35;97137.91;;;-0.40;100.00
65181;BME280;51765;48.112;11.766;2024-01-27T04:52:02;97139.63;;;-0.41;100.00
65181;BME280;51765;48.112;11.766;2024-01-27T04:54:29;97144.88;;;-0.42;100.00
65181;BME280;51765;48.112;11.766;2024-01-27T04:56:55;97148.50;;;-0.45;100.00
65181;BME280;51765;48.112;11.766;2024-01-27T04:59:23;97142.00;;;-0.50;100.00
65181;BME280;51765;48.112;11.766;2024-01-27T05:01:51;97150.38;;;-0.61;100.00
65181;BME280;51765;48.112;11.766;2024-01-27T05:04:18;97153.16;;;-0.64;100.00
65181;BME280;51765;48.112;11.766;2024-01-27T05:06:45;97159.41;;;-0.68;100.00
65181;BME280;51765;48.112;11.766;2024-01-27T05:09:12;97160.34;;;-0.70;100.00
65181;BME280;51765;48.112;11.766;2024-01-27T05:11:38;97160.63;;;-0.74;100.00
65181;BME280;51765;48.112;11.766;2024-01-27T05:14:11;97160.06;;;-0.79;100.00
65181;BME280;51765;48.112;11.766;2024-01-27T05:16:39;97163.84;;;-0.85;100.00
65181;BME280;51765;48.112;11.766;2024-01-27T05:19:06;97169.00;;;-0.85;100.00
65181;BME280;51765;48.112;11.766;2024-01-27T05:21:33;97162.47;;;-0.76;100.00
65181;BME280;51765;48.112;11.766;2024-01-27T05:24:00;97163.09;;;-0.73;100.00
65181;BME280;51765;48.112;11.766;2024-01-27T05:26:27;97169.88;;;-0.72;100.00
65181;BME280;51765;48.112;11.766;2024-01-27T05:28:56;97175.53;;;-0.79;100.00
65181;BME280;51765;48.112;11.766;2024-01-27T05:31:23;97179.03;;;-0.95;100.00
65181;BME280;51765;48.112;11.766;2024-01-27T05:33:56;97183.25;;;-0.94;100.00
65181;BME280;51765;48.112;11.766;2024-01-27T05:36:23;97183.97;;;-0.92;100.00
65181;BME280;51765;48.112;11.766;2024-01-27T05:38:50;97189.97;;;-0.91;100.00
65181;BME280;51765;48.112;11.766;2024-01-27T05:41:17;97188.41;;;-1.08;100.00
65181;BME280;51765;48.112;11.766;2024-01-27T05:43:44;97191.06;;;-1.24;100.00
65181;BME280;51765;48.112;11.766;2024-01-27T05:46:11;97188.78;;;-1.29;100.00
65181;BME280;51765;48.112;11.766;2024-01-27T05:48:38;97198.41;;;-1.32;100.00
65181;BME280;51765;48.112;11.766;2024-01-27T05:51:06;97196.84;;;-1.35;100.00
65181;BME280;51765;48.112;11.766;2024-01-27T05:53:34;97202.34;;;-1.41;100.00
65181;BME280;51765;48.112;11.766;2024-01-27T05:56:01;97209.50;;;-1.46;100.00
65181;BME280;51765;48.112;11.766;2024-01-27T05:58:28;97195.06;;;-1.49;100.00
65181;BME280;51765;48.112;11.766;2024-01-27T06:00:54;97210.69;;;-1.52;100.00
65181;BME280;51765;48.112;11.766;2024-01-27T06:03:24;97211.88;;;-1.43;100.00
65181;BME280;51765;48.112;11.766;2024-01-27T06:05:51;97222.03;;;-1.40;100.00
65181;BME280;51765;48.112;11.766;2024-01-27T06:08:22;97222.56;;;-1.35;100.00
65181;BME280;51765;48.112;11.766;2024-01-27T06:10:49;97220.84;;;-1.34;100.00
65181;BME280;51765;48.112;11.766;2024-01-27T06:13:15;97232.47;;;-1.43;100.00
65181;BME280;51765;48.112;11.766;2024-01-27T06:15:42;97229.81;;;-1.42;100.00
65181;BME280;51765;48.112;11.766;2024-01-27T06:18:09;97233.13;;;-1.40;100.00
65181;BME280;51765;48.112;11.766;2024-01-27T06:20:34;97237.59;;;-1.43;100.00
65181;BME280;51765;48.112;11.766;2024-01-27T06:23:04;97227.78;;;-1.51;100.00
65181;BME280;51765;48.112;11.766;2024-01-27T06:25:32;97233.00;;;-1.52;100.00
65181;BME280;51765;48.112;11.766;2024-01-27T06:28:04;97233.81;;;-1.52;100.00
65181;BME280;51765;48.112;11.766;2024-01-27T06:30:31;97236.97;;;-1.47;100.00
65181;BME280;51765;48.112;11.766;2024-01-27T06:33:02;97234.31;;;-1.31;100.00
65181;BME280;51765;48.112;11.766;2024-01-27T06:35:30;97234.41;;;-1.32;100.00
65181;BME280;51765;48.112;11.766;2024-01-27T06:37:57;97240.13;;;-1.27;100.00
65181;BME280;51765;48.112;11.766;2024-01-27T06:40:24;97245.47;;;-1.30;100.00
65181;BME280;51765;48.112;11.766;2024-01-27T06:42:52;97234.41;;;-1.32;100.00
65181;BME280;51765;48.112;11.766;2024-01-27T06:45:19;97244.69;;;-1.32;100.00
65181;BME280;51765;48.112;11.766;2024-01-27T06:47:45;97248.56;;;-1.25;100.00
65181;BME280;51765;48.112;11.766;2024-01-27T06:50:13;97253.28;;;-1.17;100.00
65181;BME280;51765;48.112;11.766;2024-01-27T06:52:40;97248.94;;;-1.17;100.00
65181;BME280;51765;48.112;11.766;2024-01-27T06:55:07;97247.84;;;-1.13;100.00
65181;BME280;51765;48.112;11.766;2024-01-27T06:57:36;97245.66;;;-1.05;100.00
65181;BME280;51765;48.112;11.766;2024-01-27T07:00:04;97247.97;;;-0.85;100.00
65181;BME280;51765;48.112;11.766;2024-01-27T07:02:34;97255.41;;;-0.66;100.00
65181;BME280;51765;48.112;11.766;2024-01-27T07:05:01;97255.31;;;-0.65;100.00
65181;BME280;51765;48.112;11.766;2024-01-27T07:07:31;97264.69;;;-0.64;100.00
65181;BME280;51765;48.112;11.766;2024-01-27T07:09:58;97259.53;;;-0.64;100.00
65181;BME280;51765;48.112;11.766;2024-01-27T07:12:24;97262.75;;;-0.60;100.00
65181;BME280;51765;48.112;11.766;2024-01-27T07:14:51;97254.22;;;-0.19;100.00
65181;BME280;51765;48.112;11.766;2024-01-27T07:17:21;97257.97;;;0.17;100.00
65181;BME280;51765;48.112;11.766;2024-01-27T07:19:48;97258.84;;;0.43;100.00
65181;BME280;51765;48.112;11.766;2024-01-27T07:22:14;97259.06;;;0.40;100.00
65181;BME280;51765;48.112;11.766;2024-01-27T07:24:41;97263.06;;;0.31;100.00
65181;BME280;51765;48.112;11.766;2024-01-27T07:27:09;97264.91;;;0.29;100.00
65181;BME280;51765;48.112;11.766;2024-01-27T07:29:36;97272.66;;;0.29;100.00
65181;BME280;51765;48.112;11.766;2024-01-27T07:32:03;97266.38;;;0.33;100.00
65181;BME280;51765;48.112;11.766;2024-01-27T07:34:31;97274.44;;;0.42;100.00
65181;BME280;51765;48.112;11.766;2024-01-27T07:37:01;97269.38;;;0.40;100.00
65181;BME280;51765;48.112;11.766;2024-01-27T07:39:27;97272.41;;;0.47;100.00
65181;BME280;51765;48.112;11.766;2024-01-27T07:41:54;97269.22;;;0.56;100.00
65181;BME280;51765;48.112;11.766;2024-01-27T07:44:21;97269.84;;;0.60;100.00
65181;BME280;51765;48.112;11.766;2024-01-27T07:46:48;97263.34;;;0.67;100.00
65181;BME280;51765;48.112;11.766;2024-01-27T07:49:14;97262.66;;;0.78;100.00
65181;BME280;51765;48.112;11.766;2024-01-27T07:51:42;97267.38;;;0.84;100.00
65181;BME280;51765;48.112;11.766;2024-01-27T07:54:09;97272.16;;;0.90;100.00
65181;BME280;51765;48.112;11.766;2024-01-27T07:56:37;97270.19;;;0.94;100.00
65181;BME280;51765;48.112;11.766;2024-01-27T07:59:06;97268.84;;;1.01;100.00
65181;BME280;51765;48.112;11.766;2024-01-27T08:01:41;97268.22;;;1.10;100.00
65181;BME280;51765;48.112;11.766;2024-01-27T08:04:08;97260.16;;;1.15;100.00
65181;BME280;51765;48.112;11.766;2024-01-27T08:06:46;97261.31;;;1.24;100.00
65181;BME280;51765;48.112;11.766;2024-01-27T08:09:13;97264.69;;;1.37;100.00
65181;BME280;51765;48.112;11.766;2024-01-27T08:11:40;97259.31;;;1.53;100.00
65181;BME280;51765;48.112;11.766;2024-01-27T08:14:07;97257.97;;;1.60;100.00
65181;BME280;51765;48.112;11.766;2024-01-27T08:16:34;97265.78;;;1.71;100.00
65181;BME280;51765;48.112;11.766;2024-01-27T08:19:01;97266.59;;;1.72;100.00
65181;BME280;51765;48.112;11.766;2024-01-27T08:21:27;97260.06;;;1.79;100.00
65181;BME280;51765;48.112;11.766;2024-01-27T08:23:55;97265.91;;;1.94;100.00
65181;BME280;51765;48.112;11.766;2024-01-27T08:26:22;97268.22;;;2.10;100.00
65181;BME280;51765;48.112;11.766;2024-01-27T08:28:49;97276.38;;;2.17;100.00
65181;BME280;51765;48.112;11.766;2024-01-27T08:31:16;97279.47;;;2.22;100.00
65181;BME280;51765;48.112;11.766;2024-01-27T08:33:43;97272.09;;;2.29;100.00
65181;BME280;51765;48.112;11.766;2024-01-27T08:36:12;97273.63;;;2.31;100.00
65181;BME280;51765;48.112;11.766;2024-01-27T08:38:39;97272.16;;;2.40;100.00
65181;BME280;51765;48.112;11.766;2024-01-27T08:41:07;97270.16;;;2.44;100.00
65181;BME280;51765;48.112;11.766;2024-01-27T08:43:34;97275.38;;;2.55;100.00
65181;BME280;51765;48.112;11.766;2024-01-27T08:46:01;97273.03;;;2.63;100.00
65181;BME280;51765;48.112;11.766;2024-01-27T08:48:28;97278.13;;;2.76;100.00
65181;BME280;51765;48.112;11.766;2024-01-27T08:50:54;97273.81;;;2.77;100.00
65181;BME280;51765;48.112;11.766;2024-01-27T08:53:21;97278.97;;;2.77;100.00
65181;BME280;51765;48.112;11.766;2024-01-27T08:55:47;97274.25;;;2.82;100.00
65181;BME280;51765;48.112;11.766;2024-01-27T08:58:16;97277.47;;;2.85;100.00
65181;BME280;51765;48.112;11.766;2024-01-27T09:00:43;97270.66;;;2.96;100.00
65181;BME280;51765;48.112;11.766;2024-01-27T09:03:10;97270.31;;;3.00;100.00
65181;BME280;51765;48.112;11.766;2024-01-27T09:05:38;97270.69;;;3.18;100.00
65181;BME280;51765;48.112;11.766;2024-01-27T09:08:06;97282.00;;;3.17;100.00
65181;BME280;51765;48.112;11.766;2024-01-27T09:10:33;97275.97;;;3.28;100.00
65181;BME280;51765;48.112;11.766;2024-01-27T09:13:00;97285.16;;;3.21;100.00
65181;BME280;51765;48.112;11.766;2024-01-27T09:15:28;97283.66;;;3.30;100.00
65181;BME280;51765;48.112;11.766;2024-01-27T09:17:55;97286.72;;;3.23;100.00
65181;BME280;51765;48.112;11.766;2024-01-27T09:20:22;97286.03;;;3.44;100.00
65181;BME280;51765;48.112;11.766;2024-01-27T09:22:51;97295.34;;;3.47;100.00
65181;BME280;51765;48.112;11.766;2024-01-27T09:25:21;97285.41;;;3.63;100.00
65181;BME280;51765;48.112;11.766;2024-01-27T09:27:48;97290.38;;;3.66;100.00
65181;BME280;51765;48.112;11.766;2024-01-27T09:30:15;97287.66;;;3.68;100.00
65181;BME280;51765;48.112;11.766;2024-01-27T09:32:44;97290.47;;;3.65;100.00
65181;BME280;51765;48.112;11.766;2024-01-27T09:35:10;97291.78;;;3.82;100.00
65181;BME280;51765;48.112;11.766;2024-01-27T09:37:37;97300.97;;;3.74;100.00
65181;BME280;51765;48.112;11.766;2024-01-27T09:40:05;97304.41;;;3.75;100.00
65181;BME280;51765;48.112;11.766;2024-01-27T09:42:32;97316.06;;;3.81;100.00
65181;BME280;51765;48.112;11.766;2024-01-27T09:45:00;97311.56;;;3.83;100.00
65181;BME280;51765;48.112;11.766;2024-01-27T09:47:28;97309.94;;;3.93;100.00
65181;BME280;51765;48.112;11.766;2024-01-27T09:49:56;97313.84;;;3.76;100.00
65181;BME280;51765;48.112;11.766;2024-01-27T09:52:23;97315.16;;;4.25;100.00
65181;BME280;51765;48.112;11.766;2024-01-27T09:54:50;97327.13;;;4.49;100.00
65181;BME280;51765;48.112;11.766;2024-01-27T09:57:17;97327.75;;;4.74;100.00
65181;BME280;51765;48.112;11.766;2024-01-27T09:59:46;97323.41;;;4.95;100.00
65181;BME280;51765;48.112;11.766;2024-01-27T10:02:13;97326.25;;;4.92;100.00
65181;BME280;51765;48.112;11.766;2024-01-27T10:04:48;97321.75;;;4.94;100.00
65181;BME280;51765;48.112;11.766;2024-01-27T10:07:17;97321.41;;;4.88;100.00
65181;BME280;51765;48.112;11.766;2024-01-27T10:09:44;97321.06;;;4.92;100.00
65181;BME280;51765;48.112;11.766;2024-01-27T10:12:16;97325.53;;;4.90;100.00
65181;BME280;51765;48.112;11.766;2024-01-27T10:14:44;97326.38;;;4.91;100.00
65181;BME280;51765;48.112;11.766;2024-01-27T10:17:19;97325.50;;;5.02;100.00
65181;BME280;51765;48.112;11.766;2024-01-27T10:19:46;97323.47;;;5.05;100.00
65181;BME280;51765;48.112;11.766;2024-01-27T10:22:13;97319.16;;;5.15;100.00
65181;BME280;51765;48.112;11.766;2024-01-27T10:24:41;97314.41;;;5.21;100.00
65181;BME280;51765;48.112;11.766;2024-01-27T10:27:09;97315.72;;;5.36;100.00
65181;BME280;51765;48.112;11.766;2024-01-27T10:29:36;97321.59;;;5.38;100.00
65181;BME280;51765;48.112;11.766;2024-01-27T10:32:09;97309.66;;;5.57;100.00
65181;BME280;51765;48.112;11.766;2024-01-27T10:34:35;97312.09;;;5.79;100.00
65181;BME280;51765;48.112;11.766;2024-01-27T10:37:02;97298.69;;;5.84;100.00
65181;BME280;51765;48.112;11.766;2024-01-27T10:39:29;97292.19;;;6.09;100.00
65181;BME280;51765;48.112;11.766;2024-01-27T10:41:57;97293.75;;;6.31;100.00
65181;BME280;51765;48.112;11.766;2024-01-27T10:44:27;97291.56;;;6.46;100.00
65181;BME280;51765;48.112;11.766;2024-01-27T10:46:54;97278.13;;;6.61;100.00
65181;BME280;51765;48.112;11.766;2024-01-27T10:49:23;97275.78;;;6.77;100.00
65181;BME280;51765;48.112;11.766;2024-01-27T10:51:52;97278.94;;;6.51;100.00
65181;BME280;51765;48.112;11.766;2024-01-27T10:54:23;97278.50;;;6.27;100.00
65181;BME280;51765;48.112;11.766;2024-01-27T10:56:50;97274.53;;;6.23;100.00
65181;BME280;51765;48.112;11.766;2024-01-27T10:59:19;97266.53;;;5.95;100.00
65181;BME280;51765;48.112;11.766;2024-01-27T11:01:46;97258.59;;;5.56;100.00
65181;BME280;51765;48.112;11.766;2024-01-27T11:04:13;97258.78;;;5.64;100.00
65181;BME280;51765;48.112;11.766;2024-01-27T11:06:40;97252.53;;;5.45;100.00
65181;BME280;51765;48.112;11.766;2024-01-27T11:09:12;97256.09;;;5.44;100.00
65181;BME280;51765;48.112;11.766;2024-01-27T11:11:40;97257.56;;;5.37;100.00
65181;BME280;51765;48.112;11.766;2024-01-27T11:14:07;97256.22;;;5.43;100.00
65181;BME280;51765;48.112;11.766;2024-01-27T11:16:39;97264.56;;;5.77;100.00
65181;BME280;51765;48.112;11.766;2024-01-27T11:19:17;97255.19;;;5.65;100.00
65181;BME280;51765;48.112;11.766;2024-01-27T11:21:43;97252.81;;;5.93;100.00
65181;BME280;51765;48.112;11.766;2024-01-27T11:24:17;97249.72;;;6.18;100.00
65181;BME280;51765;48.112;11.766;2024-01-27T11:26:44;97249.78;;;5.88;100.00
65181;BME280;51765;48.112;11.766;2024-01-27T11:29:10;97254.56;;;5.73;100.00
65181;BME280;51765;48.112;11.766;2024-01-27T11:31:46;97247.16;;;5.68;100.00
65181;BME280;51765;48.112;11.766;2024-01-27T11:34:12;97240.06;;;5.90;100.00
65181;BME280;51765;48.112;11.766;2024-01-27T11:36:42;97240.44;;;6.26;100.00
65181;BME280;51765;48.112;11.766;2024-01-27T11:39:22;97246.47;;;6.46;100.00
65181;BME280;51765;48.112;11.766;2024-01-27T11:41:49;97248.66;;;6.50;100.00
65181;BME280;51765;48.112;11.766;2024-01-27T11:44:16;97250.97;;;6.73;100.00
65181;BME280;51765;48.112;11.766;2024-01-27T11:46:43;97252.44;;;6.95;100.00
65181;BME280;51765;48.112;11.766;2024-01-27T11:49:13;97248.47;;;6.91;100.00
65181;BME280;51765;48.112;11.766;2024-01-27T11:51:41;97242.84;;;6.96;100.00
65181;BME280;51765;48.112;11.766;2024-01-27T11:54:07;97236.34;;;7.10;100.00
65181;BME280;51765;48.112;11.766;2024-01-27T11:56:34;97243.97;;;6.93;100.00
65181;BME280;51765;48.112;11.766;2024-01-27T11:59:01;97238.34;;;6.68;100.00
65181;BME280;51765;48.112;11.766;2024-01-27T12:01:27;97241.66;;;6.61;100.00
65181;BME280;51765;48.112;11.766;2024-01-27T12:03:54;97244.25;;;6.90;100.00
65181;BME280;51765;48.112;11.766;2024-01-27T12:06:22;97231.44;;;6.97;100.00
65181;BME280;51765;48.112;11.766;2024-01-27T12:08:52;97231.69;;;7.13;100.00
65181;BME280;51765;48.112;11.766;2024-01-27T12:11:19;97236.25;;;7.01;100.00
65181;BME280;51765;48.112;11.766;2024-01-27T12:13:45;97231.09;;;7.19;100.00
65181;BME280;51765;48.112;11.766;2024-01-27T12:16:13;97218.47;;;7.25;100.00
65181;BME280;51765;48.112;11.766;2024-01-27T12:18:40;97229.97;;;7.32;100.00
65181;BME280;51765;48.112;11.766;2024-01-27T12:21:06;97218.41;;;7.44;100.00
65181;BME280;51765;48.112;11.766;2024-01-27T12:23:34;97217.44;;;7.45;100.00
65181;BME280;51765;48.112;11.766;2024-01-27T12:26:01;97218.72;;;7.31;100.00
65181;BME280;51765;48.112;11.766;2024-01-27T12:28:29;97218.66;;;7.13;100.00
65181;BME280;51765;48.112;11.766;2024-01-27T12:30:56;97235.16;;;6.94;100.00
65181;BME280;51765;48.112;11.766;2024-01-27T12:33:23;97235.22;;;6.75;100.00
65181;BME280;51765;48.112;11.766;2024-01-27T12:35:50;97228.16;;;6.95;100.00
65181;BME280;51765;48.112;11.766;2024-01-27T12:38:19;97227.31;;;6.94;100.00
65181;BME280;51765;48.112;11.766;2024-01-27T12:40:57;97221.47;;;6.82;100.00
65181;BME280;51765;48.112;11.766;2024-01-27T12:43:25;97219.41;;;6.96;100.00
65181;BME280;51765;48.112;11.766;2024-01-27T12:45:52;97218.88;;;6.82;100.00
65181;BME280;51765;48.112;11.766;2024-01-27T12:48:18;97216.84;;;6.57;100.00
65181;BME280;51765;48.112;11.766;2024-01-27T12:50:48;97212.44;;;6.77;100.00